sensor_id;sensor_type;location;lat;lon;timestamp;P1;durP1;ratioP1;P2;durP2;ratioP2
56567;SDS011;42456;49.956;20.004;2023-06-22T00:01:19;9.80;;;5.10;;
56567;SDS011;42456;49.956;20.004;2023-06-22T00:03:48;8.30;;;5.20;;
56567;SDS011;42456;49.956;20.004;2023-06-22T00:06:14;8.80;;;5.40;;
56567;SDS011;42456;49.956;20.004;2023-06-22T00:08:40;12.10;;;5.50;;
56567;SDS011;42456;49.956;20.004;2023-06-22T00:11:06;9.80;;;5.70;;
56567;SDS011;42456;49.956;20.004;2023-06-22T00:13:33;9.80;;;5.50;;
56567;SDS011;42456;49.956;20.004;2023-06-22T00:15:59;10.40;;;5.50;;
56567;SDS011;42456;49.956;20.004;2023-06-22T00:18:25;8.30;;;5.50;;
56567;SDS011;42456;49.956;20.004;2023-06-22T00:20:54;11.60;;;5.50;;
56567;SDS011;42456;49.956;20.004;2023-06-22T00:23:23;12.30;;;7.80;;
56567;SDS011;42456;49.956;20.004;2023-06-22T00:25:49;14.30;;;8.20;;
56567;SDS011;42456;49.956;20.004;2023-06-22T00:28:15;19.60;;;9.20;;
56567;SDS011;42456;49.956;20.004;2023-06-22T00:30:42;11.00;;;7.20;;
56567;SDS011;42456;49.956;20.004;2023-06-22T00:33:08;13.80;;;7.20;;
56567;SDS011;42456;49.956;20.004;2023-06-22T00:35:34;11.90;;;7.80;;
56567;SDS011;42456;49.956;20.004;2023-06-22T00:38:00;11.50;;;6.70;;
56567;SDS011;42456;49.956;20.004;2023-06-22T00:40:28;13.40;;;7.60;;
56567;SDS011;42456;49.956;20.004;2023-06-22T00:42:55;13.40;;;7.50;;
56567;SDS011;42456;49.956;20.004;2023-06-22T00:45:25;13.40;;;7.40;;
56567;SDS011;42456;49.956;20.004;2023-06-22T00:47:53;11.90;;;6.90;;
56567;SDS011;42456;49.956;20.004;2023-06-22T00:50:21;11.80;;;7.50;;
56567;SDS011;42456;49.956;20.004;2023-06-22T00:52:49;12.60;;;6.40;;
56567;SDS011;42456;49.956;20.004;2023-06-22T00:55:19;12.20;;;6.70;;
56567;SDS011;42456;49.956;20.004;2023-06-22T00:57:47;16.70;;;6.70;;
56567;SDS011;42456;49.956;20.004;2023-06-22T01:00:17;10.20;;;6.40;;
56567;SDS011;42456;49.956;20.004;2023-06-22T01:02:46;11.30;;;6.50;;
56567;SDS011;42456;49.956;20.004;2023-06-22T01:05:16;12.70;;;6.90;;
56567;SDS011;42456;49.956;20.004;2023-06-22T01:16:00;13.30;;;6.50;;
56567;SDS011;42456;49.956;20.004;2023-06-22T01:18:31;11.80;;;6.40;;
56567;SDS011;42456;49.956;20.004;2023-06-22T01:21:04;11.20;;;6.50;;
56567;SDS011;42456;49.956;20.004;2023-06-22T01:26:18;10.50;;;6.10;;
56567;SDS011;42456;49.956;20.004;2023-06-22T01:28:54;11.50;;;6.20;;
56567;SDS011;42456;49.956;20.004;2023-06-22T01:31:24;11.40;;;6.10;;
56567;SDS011;42456;49.956;20.004;2023-06-22T01:33:55;13.60;;;6.40;;
56567;SDS011;42456;49.956;20.004;2023-06-22T01:36:25;8.90;;;5.70;;
56567;SDS011;42456;49.956;20.004;2023-06-22T01:38:52;11.70;;;6.10;;
56567;SDS011;42456;49.956;20.004;2023-06-22T01:41:19;14.40;;;6.70;;
56567;SDS011;42456;49.956;20.004;2023-06-22T01:43:47;12.20;;;5.90;;
56567;SDS011;42456;49.956;20.004;2023-06-22T01:46:14;11.60;;;6.40;;
56567;SDS011;42456;49.956;20.004;2023-06-22T01:48:41;10.20;;;5.90;;
56567;SDS011;42456;49.956;20.004;2023-06-22T01:51:07;13.70;;;6.10;;
56567;SDS011;42456;49.956;20.004;2023-06-22T01:53:34;11.50;;;6.00;;
56567;SDS011;42456;49.956;20.004;2023-06-22T01:56:00;10.40;;;5.90;;
56567;SDS011;42456;49.956;20.004;2023-06-22T01:58:27;9.60;;;6.00;;
56567;SDS011;42456;49.956;20.004;2023-06-22T02:01:17;11.40;;;6.10;;
56567;SDS011;42456;49.956;20.004;2023-06-22T02:04:02;12.70;;;6.50;;
56567;SDS011;42456;49.956;20.004;2023-06-22T02:06:34;9.30;;;5.70;;
56567;SDS011;42456;49.956;20.004;2023-06-22T02:09:06;12.80;;;5.90;;
56567;SDS011;42456;49.956;20.004;2023-06-22T02:11:36;11.80;;;6.00;;
56567;SDS011;42456;49.956;20.004;2023-06-22T02:14:03;10.00;;;5.60;;
56567;SDS011;42456;49.956;20.004;2023-06-22T02:16:32;9.20;;;5.40;;
56567;SDS011;42456;49.956;20.004;2023-06-22T02:18:58;10.20;;;5.80;;
56567;SDS011;42456;49.956;20.004;2023-06-22T02:21:32;11.50;;;6.10;;
56567;SDS011;42456;49.956;20.004;2023-06-22T02:23:58;12.10;;;6.20;;
56567;SDS011;42456;49.956;20.004;2023-06-22T02:26:27;9.90;;;5.80;;
56567;SDS011;42456;49.956;20.004;2023-06-22T02:28:53;10.30;;;5.80;;
56567;SDS011;42456;49.956;20.004;2023-06-22T02:31:20;11.70;;;5.70;;
56567;SDS011;42456;49.956;20.004;2023-06-22T02:33:46;9.00;;;5.80;;
56567;SDS011;42456;49.956;20.004;2023-06-22T02:36:14;12.10;;;6.20;;
56567;SDS011;42456;49.956;20.004;2023-06-22T02:38:40;11.20;;;6.00;;
56567;SDS011;42456;49.956;20.004;2023-06-22T02:41:14;8.30;;;5.60;;
56567;SDS011;42456;49.956;20.004;2023-06-22T02:43:44;10.90;;;6.00;;
56567;SDS011;42456;49.956;20.004;2023-06-22T02:46:13;10.70;;;5.60;;
56567;SDS011;42456;49.956;20.004;2023-06-22T02:48:40;10.40;;;5.70;;
56567;SDS011;42456;49.956;20.004;2023-06-22T02:51:06;10.90;;;5.90;;
56567;SDS011;42456;49.956;20.004;2023-06-22T02:53:33;12.10;;;6.60;;
56567;SDS011;42456;49.956;20.004;2023-06-22T02:56:01;13.70;;;6.20;;
56567;SDS011;42456;49.956;20.004;2023-06-22T02:58:31;10.70;;;6.80;;
56567;SDS011;42456;49.956;20.004;2023-06-22T03:01:05;13.40;;;7.20;;
56567;SDS011;42456;49.956;20.004;2023-06-22T03:03:31;14.00;;;6.60;;
56567;SDS011;42456;49.956;20.004;2023-06-22T03:05:58;13.50;;;5.90;;
56567;SDS011;42456;49.956;20.004;2023-06-22T03:08:26;10.40;;;6.00;;
56567;SDS011;42456;49.956;20.004;2023-06-22T03:10:53;11.80;;;6.20;;
56567;SDS011;42456;49.956;20.004;2023-06-22T03:13:19;12.60;;;5.80;;
56567;SDS011;42456;49.956;20.004;2023-06-22T03:15:45;15.40;;;6.10;;
56567;SDS011;42456;49.956;20.004;2023-06-22T03:18:11;11.30;;;6.00;;
56567;SDS011;42456;49.956;20.004;2023-06-22T03:20:38;12.20;;;6.10;;
56567;SDS011;42456;49.956;20.004;2023-06-22T03:23:04;12.20;;;6.30;;
56567;SDS011;42456;49.956;20.004;2023-06-22T03:25:30;11.40;;;6.30;;
56567;SDS011;42456;49.956;20.004;2023-06-22T03:27:56;10.70;;;6.00;;
56567;SDS011;42456;49.956;20.004;2023-06-22T03:30:23;8.90;;;5.80;;
56567;SDS011;42456;49.956;20.004;2023-06-22T03:32:49;11.70;;;6.00;;
56567;SDS011;42456;49.956;20.004;2023-06-22T03:35:15;11.30;;;6.00;;
56567;SDS011;42456;49.956;20.004;2023-06-22T03:37:42;15.40;;;6.80;;
56567;SDS011;42456;49.956;20.004;2023-06-22T03:40:08;10.20;;;5.70;;
56567;SDS011;42456;49.956;20.004;2023-06-22T03:42:34;8.40;;;5.50;;
56567;SDS011;42456;49.956;20.004;2023-06-22T03:45:03;9.30;;;5.40;;
56567;SDS011;42456;49.956;20.004;2023-06-22T03:47:30;10.00;;;6.50;;
56567;SDS011;42456;49.956;20.004;2023-06-22T03:49:56;13.20;;;6.60;;
56567;SDS011;42456;49.956;20.004;2023-06-22T03:52:23;12.10;;;6.40;;
56567;SDS011;42456;49.956;20.004;2023-06-22T03:54:49;13.50;;;6.80;;
56567;SDS011;42456;49.956;20.004;2023-06-22T03:57:15;10.40;;;6.40;;
56567;SDS011;42456;49.956;20.004;2023-06-22T03:59:42;11.50;;;5.60;;
56567;SDS011;42456;49.956;20.004;2023-06-22T04:02:08;13.00;;;6.20;;
56567;SDS011;42456;49.956;20.004;2023-06-22T04:04:37;8.50;;;5.40;;
56567;SDS011;42456;49.956;20.004;2023-06-22T04:07:05;10.60;;;5.70;;
56567;SDS011;42456;49.956;20.004;2023-06-22T04:09:31;12.20;;;5.90;;
56567;SDS011;42456;49.956;20.004;2023-06-22T04:11:58;8.90;;;5.40;;
56567;SDS011;42456;49.956;20.004;2023-06-22T04:14:24;11.90;;;6.10;;
56567;SDS011;42456;49.956;20.004;2023-06-22T04:16:51;8.80;;;5.30;;
56567;SDS011;42456;49.956;20.004;2023-06-22T04:19:17;8.10;;;5.00;;
56567;SDS011;42456;49.956;20.004;2023-06-22T04:21:44;10.50;;;6.00;;
56567;SDS011;42456;49.956;20.004;2023-06-22T04:24:11;11.00;;;6.00;;
56567;SDS011;42456;49.956;20.004;2023-06-22T04:26:37;15.70;;;5.80;;
56567;SDS011;42456;49.956;20.004;2023-06-22T04:29:07;12.30;;;6.00;;
56567;SDS011;42456;49.956;20.004;2023-06-22T04:31:34;9.70;;;5.90;;
56567;SDS011;42456;49.956;20.004;2023-06-22T04:34:04;11.30;;;5.80;;
56567;SDS011;42456;49.956;20.004;2023-06-22T04:36:35;9.40;;;5.80;;
56567;SDS011;42456;49.956;20.004;2023-06-22T04:39:06;8.70;;;5.10;;
56567;SDS011;42456;49.956;20.004;2023-06-22T04:41:35;9.40;;;5.20;;
56567;SDS011;42456;49.956;20.004;2023-06-22T04:44:11;12.30;;;6.10;;
56567;SDS011;42456;49.956;20.004;2023-06-22T04:46:51;11.20;;;4.80;;
56567;SDS011;42456;49.956;20.004;2023-06-22T04:49:33;11.70;;;5.40;;
56567;SDS011;42456;49.956;20.004;2023-06-22T04:52:04;9.20;;;4.70;;
56567;SDS011;42456;49.956;20.004;2023-06-22T04:57:00;10.50;;;5.00;;
56567;SDS011;42456;49.956;20.004;2023-06-22T04:59:30;10.80;;;5.30;;
56567;SDS011;42456;49.956;20.004;2023-06-22T05:01:57;9.70;;;4.80;;
56567;SDS011;42456;49.956;20.004;2023-06-22T05:04:26;10.90;;;5.10;;
56567;SDS011;42456;49.956;20.004;2023-06-22T05:07:00;9.60;;;4.50;;
56567;SDS011;42456;49.956;20.004;2023-06-22T05:09:29;9.00;;;4.40;;
56567;SDS011;42456;49.956;20.004;2023-06-22T05:11:55;8.00;;;4.50;;
56567;SDS011;42456;49.956;20.004;2023-06-22T05:14:25;10.00;;;4.50;;
56567;SDS011;42456;49.956;20.004;2023-06-22T05:16:52;8.20;;;4.30;;
56567;SDS011;42456;49.956;20.004;2023-06-22T05:19:18;8.70;;;4.20;;
56567;SDS011;42456;49.956;20.004;2023-06-22T05:21:45;10.90;;;4.60;;
56567;SDS011;42456;49.956;20.004;2023-06-22T05:24:12;9.70;;;4.90;;
56567;SDS011;42456;49.956;20.004;2023-06-22T05:26:38;8.40;;;4.30;;
56567;SDS011;42456;49.956;20.004;2023-06-22T05:29:04;10.50;;;4.80;;
56567;SDS011;42456;49.956;20.004;2023-06-22T05:31:30;10.60;;;5.00;;
56567;SDS011;42456;49.956;20.004;2023-06-22T05:33:57;9.00;;;4.70;;
56567;SDS011;42456;49.956;20.004;2023-06-22T05:36:23;12.80;;;5.80;;
56567;SDS011;42456;49.956;20.004;2023-06-22T05:38:53;11.20;;;4.90;;
56567;SDS011;42456;49.956;20.004;2023-06-22T05:43:48;10.80;;;5.10;;
56567;SDS011;42456;49.956;20.004;2023-06-22T05:46:14;17.50;;;5.50;;
56567;SDS011;42456;49.956;20.004;2023-06-22T05:48:40;8.50;;;4.60;;
56567;SDS011;42456;49.956;20.004;2023-06-22T05:51:06;9.60;;;5.50;;
56567;SDS011;42456;49.956;20.004;2023-06-22T05:53:32;10.60;;;5.30;;
56567;SDS011;42456;49.956;20.004;2023-06-22T05:55:59;12.30;;;5.70;;
56567;SDS011;42456;49.956;20.004;2023-06-22T05:58:25;11.60;;;5.70;;
56567;SDS011;42456;49.956;20.004;2023-06-22T06:00:51;11.10;;;5.90;;
56567;SDS011;42456;49.956;20.004;2023-06-22T06:03:17;13.30;;;5.70;;
56567;SDS011;42456;49.956;20.004;2023-06-22T06:05:44;10.10;;;5.50;;
56567;SDS011;42456;49.956;20.004;2023-06-22T06:08:11;11.80;;;6.10;;
56567;SDS011;42456;49.956;20.004;2023-06-22T06:10:38;12.20;;;5.20;;
56567;SDS011;42456;49.956;20.004;2023-06-22T06:13:04;12.10;;;5.70;;
56567;SDS011;42456;49.956;20.004;2023-06-22T06:15:31;13.90;;;7.00;;
56567;SDS011;42456;49.956;20.004;2023-06-22T06:17:58;9.50;;;5.50;;
56567;SDS011;42456;49.956;20.004;2023-06-22T06:20:25;11.10;;;5.60;;
56567;SDS011;42456;49.956;20.004;2023-06-22T06:22:54;11.70;;;6.30;;
56567;SDS011;42456;49.956;20.004;2023-06-22T06:25:21;12.20;;;6.00;;
56567;SDS011;42456;49.956;20.004;2023-06-22T06:27:47;12.60;;;6.80;;
56567;SDS011;42456;49.956;20.004;2023-06-22T06:30:16;13.80;;;6.80;;
56567;SDS011;42456;49.956;20.004;2023-06-22T06:35:12;13.00;;;7.10;;
56567;SDS011;42456;49.956;20.004;2023-06-22T06:37:39;10.80;;;7.10;;
56567;SDS011;42456;49.956;20.004;2023-06-22T06:40:08;15.60;;;7.90;;
56567;SDS011;42456;49.956;20.004;2023-06-22T06:42:37;14.10;;;7.20;;
56567;SDS011;42456;49.956;20.004;2023-06-22T06:45:06;11.30;;;7.20;;
56567;SDS011;42456;49.956;20.004;2023-06-22T06:47:34;12.40;;;6.80;;
56567;SDS011;42456;49.956;20.004;2023-06-22T06:50:02;13.20;;;7.20;;
56567;SDS011;42456;49.956;20.004;2023-06-22T06:52:30;14.10;;;7.40;;
56567;SDS011;42456;49.956;20.004;2023-06-22T06:54:56;13.40;;;6.40;;
56567;SDS011;42456;49.956;20.004;2023-06-22T06:57:23;12.30;;;7.40;;
56567;SDS011;42456;49.956;20.004;2023-06-22T06:59:49;11.30;;;7.20;;
56567;SDS011;42456;49.956;20.004;2023-06-22T07:02:15;11.80;;;6.80;;
56567;SDS011;42456;49.956;20.004;2023-06-22T07:04:41;14.90;;;7.40;;
56567;SDS011;42456;49.956;20.004;2023-06-22T07:07:08;14.40;;;7.30;;
56567;SDS011;42456;49.956;20.004;2023-06-22T07:09:34;14.10;;;7.70;;
56567;SDS011;42456;49.956;20.004;2023-06-22T07:12:00;12.40;;;7.80;;
56567;SDS011;42456;49.956;20.004;2023-06-22T07:14:27;12.50;;;7.80;;
56567;SDS011;42456;49.956;20.004;2023-06-22T07:16:53;13.80;;;8.40;;
56567;SDS011;42456;49.956;20.004;2023-06-22T07:19:25;17.40;;;9.30;;
56567;SDS011;42456;49.956;20.004;2023-06-22T07:21:53;15.50;;;7.70;;
56567;SDS011;42456;49.956;20.004;2023-06-22T07:24:23;14.60;;;7.70;;
56567;SDS011;42456;49.956;20.004;2023-06-22T07:26:50;15.40;;;7.60;;
56567;SDS011;42456;49.956;20.004;2023-06-22T07:29:17;13.10;;;8.40;;
56567;SDS011;42456;49.956;20.004;2023-06-22T07:31:44;14.90;;;8.60;;
56567;SDS011;42456;49.956;20.004;2023-06-22T07:34:11;14.30;;;9.10;;
56567;SDS011;42456;49.956;20.004;2023-06-22T07:36:37;14.50;;;8.70;;
56567;SDS011;42456;49.956;20.004;2023-06-22T07:39:04;15.40;;;8.90;;
56567;SDS011;42456;49.956;20.004;2023-06-22T07:41:31;15.70;;;9.30;;
56567;SDS011;42456;49.956;20.004;2023-06-22T07:43:58;20.30;;;10.30;;
56567;SDS011;42456;49.956;20.004;2023-06-22T07:46:25;17.90;;;8.90;;
56567;SDS011;42456;49.956;20.004;2023-06-22T07:48:51;15.80;;;9.40;;
56567;SDS011;42456;49.956;20.004;2023-06-22T07:51:21;18.70;;;10.40;;
56567;SDS011;42456;49.956;20.004;2023-06-22T07:53:48;13.30;;;9.20;;
56567;SDS011;42456;49.956;20.004;2023-06-22T07:56:14;17.10;;;9.70;;
56567;SDS011;42456;49.956;20.004;2023-06-22T07:58:45;19.60;;;12.50;;
56567;SDS011;42456;49.956;20.004;2023-06-22T08:01:13;19.60;;;12.50;;
56567;SDS011;42456;49.956;20.004;2023-06-22T08:03:40;19.00;;;11.80;;
56567;SDS011;42456;49.956;20.004;2023-06-22T08:06:07;18.90;;;12.00;;
56567;SDS011;42456;49.956;20.004;2023-06-22T08:11:01;19.60;;;12.90;;
56567;SDS011;42456;49.956;20.004;2023-06-22T08:13:27;20.00;;;12.70;;
56567;SDS011;42456;49.956;20.004;2023-06-22T08:15:54;17.30;;;12.70;;
56567;SDS011;42456;49.956;20.004;2023-06-22T08:18:20;20.70;;;13.60;;
56567;SDS011;42456;49.956;20.004;2023-06-22T08:20:47;24.80;;;14.20;;
56567;SDS011;42456;49.956;20.004;2023-06-22T08:23:13;21.00;;;13.40;;
56567;SDS011;42456;49.956;20.004;2023-06-22T08:25:39;18.10;;;11.80;;
56567;SDS011;42456;49.956;20.004;2023-06-22T08:28:05;17.70;;;12.30;;
56567;SDS011;42456;49.956;20.004;2023-06-22T08:30:33;22.30;;;12.10;;
56567;SDS011;42456;49.956;20.004;2023-06-22T08:32:59;17.60;;;12.30;;
56567;SDS011;42456;49.956;20.004;2023-06-22T08:35:25;17.60;;;12.30;;
56567;SDS011;42456;49.956;20.004;2023-06-22T08:37:52;19.40;;;11.90;;
56567;SDS011;42456;49.956;20.004;2023-06-22T08:40:21;16.70;;;11.00;;
56567;SDS011;42456;49.956;20.004;2023-06-22T08:42:48;20.60;;;11.90;;
56567;SDS011;42456;49.956;20.004;2023-06-22T08:45:15;17.80;;;11.70;;
56567;SDS011;42456;49.956;20.004;2023-06-22T08:47:41;17.00;;;11.70;;
56567;SDS011;42456;49.956;20.004;2023-06-22T08:50:09;18.80;;;11.90;;
56567;SDS011;42456;49.956;20.004;2023-06-22T08:52:36;20.80;;;12.70;;
56567;SDS011;42456;49.956;20.004;2023-06-22T08:55:03;19.00;;;12.90;;
56567;SDS011;42456;49.956;20.004;2023-06-22T08:57:30;21.60;;;12.50;;
56567;SDS011;42456;49.956;20.004;2023-06-22T08:59:58;19.20;;;12.40;;
56567;SDS011;42456;49.956;20.004;2023-06-22T09:02:26;17.80;;;11.90;;
56567;SDS011;42456;49.956;20.004;2023-06-22T09:04:59;18.90;;;11.80;;
56567;SDS011;42456;49.956;20.004;2023-06-22T09:07:32;17.00;;;12.40;;
56567;SDS011;42456;49.956;20.004;2023-06-22T09:10:07;17.50;;;12.70;;
56567;SDS011;42456;49.956;20.004;2023-06-22T09:12:41;18.00;;;12.80;;
56567;SDS011;42456;49.956;20.004;2023-06-22T09:15:14;16.20;;;13.10;;
56567;SDS011;42456;49.956;20.004;2023-06-22T09:17:45;15.80;;;11.80;;
56567;SDS011;42456;49.956;20.004;2023-06-22T09:20:22;17.90;;;13.10;;
56567;SDS011;42456;49.956;20.004;2023-06-22T09:22:56;16.80;;;12.80;;
56567;SDS011;42456;49.956;20.004;2023-06-22T09:25:30;15.50;;;12.20;;
56567;SDS011;42456;49.956;20.004;2023-06-22T09:28:03;15.90;;;12.10;;
56567;SDS011;42456;49.956;20.004;2023-06-22T09:30:38;16.90;;;13.10;;
56567;SDS011;42456;49.956;20.004;2023-06-22T09:33:12;15.80;;;11.20;;
56567;SDS011;42456;49.956;20.004;2023-06-22T09:35:43;16.10;;;12.50;;
56567;SDS011;42456;49.956;20.004;2023-06-22T09:38:16;15.60;;;11.20;;
56567;SDS011;42456;49.956;20.004;2023-06-22T09:40:51;15.80;;;11.70;;
56567;SDS011;42456;49.956;20.004;2023-06-22T09:43:31;17.80;;;12.30;;
56567;SDS011;42456;49.956;20.004;2023-06-22T09:46:05;17.50;;;13.50;;
56567;SDS011;42456;49.956;20.004;2023-06-22T09:48:42;18.00;;;13.50;;
56567;SDS011;42456;49.956;20.004;2023-06-22T09:51:15;15.40;;;12.50;;
56567;SDS011;42456;49.956;20.004;2023-06-22T09:53:48;17.10;;;14.30;;
56567;SDS011;42456;49.956;20.004;2023-06-22T09:56:23;19.00;;;13.90;;
56567;SDS011;42456;49.956;20.004;2023-06-22T09:58:59;19.40;;;13.20;;
56567;SDS011;42456;49.956;20.004;2023-06-22T10:01:45;16.90;;;13.40;;
56567;SDS011;42456;49.956;20.004;2023-06-22T10:04:19;17.30;;;13.40;;
56567;SDS011;42456;49.956;20.004;2023-06-22T10:06:51;15.40;;;12.60;;
56567;SDS011;42456;49.956;20.004;2023-06-22T10:09:24;20.50;;;13.50;;
56567;SDS011;42456;49.956;20.004;2023-06-22T10:12:03;17.70;;;13.30;;
56567;SDS011;42456;49.956;20.004;2023-06-22T10:14:34;15.80;;;13.00;;
56567;SDS011;42456;49.956;20.004;2023-06-22T10:17:06;17.10;;;13.00;;
56567;SDS011;42456;49.956;20.004;2023-06-22T10:19:38;15.60;;;12.30;;
56567;SDS011;42456;49.956;20.004;2023-06-22T10:22:11;15.40;;;12.60;;
56567;SDS011;42456;49.956;20.004;2023-06-22T10:24:43;14.90;;;12.10;;
56567;SDS011;42456;49.956;20.004;2023-06-22T10:27:16;17.30;;;12.20;;
56567;SDS011;42456;49.956;20.004;2023-06-22T10:29:45;19.50;;;14.40;;
56567;SDS011;42456;49.956;20.004;2023-06-22T10:32:18;16.40;;;11.70;;
56567;SDS011;42456;49.956;20.004;2023-06-22T10:34:48;17.10;;;11.80;;
56567;SDS011;42456;49.956;20.004;2023-06-22T10:37:22;14.10;;;11.20;;
56567;SDS011;42456;49.956;20.004;2023-06-22T10:39:55;13.00;;;10.50;;
56567;SDS011;42456;49.956;20.004;2023-06-22T10:42:27;15.00;;;11.40;;
56567;SDS011;42456;49.956;20.004;2023-06-22T10:44:59;15.10;;;10.70;;
56567;SDS011;42456;49.956;20.004;2023-06-22T10:47:30;13.20;;;10.30;;
56567;SDS011;42456;49.956;20.004;2023-06-22T10:49:57;13.00;;;9.90;;
56567;SDS011;42456;49.956;20.004;2023-06-22T10:52:23;15.00;;;9.90;;
56567;SDS011;42456;49.956;20.004;2023-06-22T10:54:50;15.40;;;10.60;;
56567;SDS011;42456;49.956;20.004;2023-06-22T10:57:22;15.60;;;10.00;;
56567;SDS011;42456;49.956;20.004;2023-06-22T10:59:56;17.20;;;9.40;;
56567;SDS011;42456;49.956;20.004;2023-06-22T11:02:28;15.70;;;10.80;;
56567;SDS011;42456;49.956;20.004;2023-06-22T11:05:00;15.20;;;11.20;;
56567;SDS011;42456;49.956;20.004;2023-06-22T11:07:32;14.50;;;9.90;;
56567;SDS011;42456;49.956;20.004;2023-06-22T11:10:04;14.80;;;10.50;;
56567;SDS011;42456;49.956;20.004;2023-06-22T11:12:33;12.90;;;10.00;;
56567;SDS011;42456;49.956;20.004;2023-06-22T11:15:05;13.60;;;10.00;;
56567;SDS011;42456;49.956;20.004;2023-06-22T11:17:38;13.70;;;9.80;;
56567;SDS011;42456;49.956;20.004;2023-06-22T11:20:11;13.90;;;10.00;;
56567;SDS011;42456;49.956;20.004;2023-06-22T11:22:43;14.50;;;10.00;;
56567;SDS011;42456;49.956;20.004;2023-06-22T11:25:12;16.00;;;10.80;;
56567;SDS011;42456;49.956;20.004;2023-06-22T11:27:45;11.80;;;9.50;;
56567;SDS011;42456;49.956;20.004;2023-06-22T11:30:16;13.80;;;10.00;;
56567;SDS011;42456;49.956;20.004;2023-06-22T11:32:50;13.10;;;9.60;;
56567;SDS011;42456;49.956;20.004;2023-06-22T11:35:21;16.00;;;9.50;;
56567;SDS011;42456;49.956;20.004;2023-06-22T11:37:52;16.10;;;9.20;;
56567;SDS011;42456;49.956;20.004;2023-06-22T11:40:25;13.90;;;8.60;;
56567;SDS011;42456;49.956;20.004;2023-06-22T11:42:57;12.60;;;8.70;;
56567;SDS011;42456;49.956;20.004;2023-06-22T11:45:30;10.80;;;8.70;;
56567;SDS011;42456;49.956;20.004;2023-06-22T11:48:02;12.60;;;9.40;;
56567;SDS011;42456;49.956;20.004;2023-06-22T11:50:34;12.60;;;8.60;;
56567;SDS011;42456;49.956;20.004;2023-06-22T11:53:02;12.70;;;9.10;;
56567;SDS011;42456;49.956;20.004;2023-06-22T11:55:31;12.00;;;9.10;;
56567;SDS011;42456;49.956;20.004;2023-06-22T11:57:57;14.70;;;9.00;;
56567;SDS011;42456;49.956;20.004;2023-06-22T12:00:29;12.50;;;9.50;;
56567;SDS011;42456;49.956;20.004;2023-06-22T12:02:56;11.00;;;8.50;;
56567;SDS011;42456;49.956;20.004;2023-06-22T12:05:26;11.70;;;9.00;;
56567;SDS011;42456;49.956;20.004;2023-06-22T12:07:55;11.60;;;8.30;;
56567;SDS011;42456;49.956;20.004;2023-06-22T12:10:22;10.60;;;8.00;;
56567;SDS011;42456;49.956;20.004;2023-06-22T12:12:48;10.50;;;7.90;;
56567;SDS011;42456;49.956;20.004;2023-06-22T12:15:15;11.80;;;8.60;;
56567;SDS011;42456;49.956;20.004;2023-06-22T12:17:41;12.20;;;8.30;;
56567;SDS011;42456;49.956;20.004;2023-06-22T12:20:07;12.20;;;8.40;;
56567;SDS011;42456;49.956;20.004;2023-06-22T12:22:34;10.00;;;7.70;;
56567;SDS011;42456;49.956;20.004;2023-06-22T12:25:01;12.90;;;8.10;;
56567;SDS011;42456;49.956;20.004;2023-06-22T12:27:27;12.50;;;8.80;;
56567;SDS011;42456;49.956;20.004;2023-06-22T12:29:53;12.80;;;8.30;;
56567;SDS011;42456;49.956;20.004;2023-06-22T12:32:20;11.50;;;7.90;;
56567;SDS011;42456;49.956;20.004;2023-06-22T12:34:46;14.00;;;8.70;;
56567;SDS011;42456;49.956;20.004;2023-06-22T12:37:13;11.40;;;8.70;;
56567;SDS011;42456;49.956;20.004;2023-06-22T12:39:45;14.70;;;8.50;;
56567;SDS011;42456;49.956;20.004;2023-06-22T12:42:15;12.10;;;7.90;;
56567;SDS011;42456;49.956;20.004;2023-06-22T12:44:42;19.80;;;8.50;;
56567;SDS011;42456;49.956;20.004;2023-06-22T12:47:08;12.30;;;7.80;;
56567;SDS011;42456;49.956;20.004;2023-06-22T12:49:35;12.80;;;8.30;;
56567;SDS011;42456;49.956;20.004;2023-06-22T12:52:02;11.60;;;8.50;;
56567;SDS011;42456;49.956;20.004;2023-06-22T12:54:29;12.20;;;8.40;;
56567;SDS011;42456;49.956;20.004;2023-06-22T12:57:01;12.00;;;8.60;;
56567;SDS011;42456;49.956;20.004;2023-06-22T12:59:27;12.10;;;8.30;;
56567;SDS011;42456;49.956;20.004;2023-06-22T13:01:53;11.40;;;8.30;;
56567;SDS011;42456;49.956;20.004;2023-06-22T13:04:20;10.90;;;8.00;;
56567;SDS011;42456;49.956;20.004;2023-06-22T13:06:47;11.00;;;7.80;;
56567;SDS011;42456;49.956;20.004;2023-06-22T13:09:18;17.20;;;7.60;;
56567;SDS011;42456;49.956;20.004;2023-06-22T13:11:46;11.40;;;8.00;;
56567;SDS011;42456;49.956;20.004;2023-06-22T13:14:13;12.50;;;8.40;;
56567;SDS011;42456;49.956;20.004;2023-06-22T13:16:39;12.40;;;8.30;;
56567;SDS011;42456;49.956;20.004;2023-06-22T13:19:05;12.50;;;8.00;;
56567;SDS011;42456;49.956;20.004;2023-06-22T13:21:34;11.30;;;7.70;;
56567;SDS011;42456;49.956;20.004;2023-06-22T13:24:03;12.00;;;7.50;;
56567;SDS011;42456;49.956;20.004;2023-06-22T13:26:32;12.70;;;8.50;;
56567;SDS011;42456;49.956;20.004;2023-06-22T13:28:58;11.80;;;8.70;;
56567;SDS011;42456;49.956;20.004;2023-06-22T13:31:24;11.90;;;8.30;;
56567;SDS011;42456;49.956;20.004;2023-06-22T13:33:50;11.30;;;8.50;;
56567;SDS011;42456;49.956;20.004;2023-06-22T13:36:18;12.10;;;8.40;;
56567;SDS011;42456;49.956;20.004;2023-06-22T13:38:46;12.40;;;8.60;;
56567;SDS011;42456;49.956;20.004;2023-06-22T13:41:12;10.30;;;8.00;;
56567;SDS011;42456;49.956;20.004;2023-06-22T13:43:39;12.30;;;8.20;;
56567;SDS011;42456;49.956;20.004;2023-06-22T13:46:05;9.80;;;7.60;;
56567;SDS011;42456;49.956;20.004;2023-06-22T13:48:32;14.70;;;7.80;;
56567;SDS011;42456;49.956;20.004;2023-06-22T13:50:58;13.20;;;7.90;;
56567;SDS011;42456;49.956;20.004;2023-06-22T13:53:24;12.80;;;7.80;;
56567;SDS011;42456;49.956;20.004;2023-06-22T13:55:52;12.90;;;7.40;;
56567;SDS011;42456;49.956;20.004;2023-06-22T13:58:18;10.60;;;7.60;;
56567;SDS011;42456;49.956;20.004;2023-06-22T14:00:45;11.70;;;7.90;;
56567;SDS011;42456;49.956;20.004;2023-06-22T14:03:11;10.70;;;7.90;;
56567;SDS011;42456;49.956;20.004;2023-06-22T14:05:41;12.20;;;7.60;;
56567;SDS011;42456;49.956;20.004;2023-06-22T14:08:08;9.40;;;7.10;;
56567;SDS011;42456;49.956;20.004;2023-06-22T14:10:55;12.50;;;7.90;;
56567;SDS011;42456;49.956;20.004;2023-06-22T14:13:21;11.80;;;8.30;;
56567;SDS011;42456;49.956;20.004;2023-06-22T14:15:47;12.70;;;9.00;;
56567;SDS011;42456;49.956;20.004;2023-06-22T14:18:14;10.70;;;7.80;;
56567;SDS011;42456;49.956;20.004;2023-06-22T14:20:41;12.00;;;8.30;;
56567;SDS011;42456;49.956;20.004;2023-06-22T14:23:08;15.20;;;8.30;;
56567;SDS011;42456;49.956;20.004;2023-06-22T14:25:37;9.40;;;6.60;;
56567;SDS011;42456;49.956;20.004;2023-06-22T14:28:09;12.40;;;8.30;;
56567;SDS011;42456;49.956;20.004;2023-06-22T14:30:39;11.90;;;8.20;;
56567;SDS011;42456;49.956;20.004;2023-06-22T14:33:07;11.40;;;7.70;;
56567;SDS011;42456;49.956;20.004;2023-06-22T14:35:34;11.00;;;7.70;;
56567;SDS011;42456;49.956;20.004;2023-06-22T14:38:04;12.20;;;7.80;;
56567;SDS011;42456;49.956;20.004;2023-06-22T14:40:34;13.70;;;7.90;;
56567;SDS011;42456;49.956;20.004;2023-06-22T14:43:26;14.60;;;7.50;;
56567;SDS011;42456;49.956;20.004;2023-06-22T14:45:58;13.00;;;7.30;;
56567;SDS011;42456;49.956;20.004;2023-06-22T14:48:30;14.70;;;7.60;;
56567;SDS011;42456;49.956;20.004;2023-06-22T14:51:01;13.00;;;7.20;;